Latest Weather Observations for Port Hedland

IDW60801

Issued at 4:34 pm WST Thursday 19 January 2017 (issued every 30 minutes, with the page automatically refreshed every 10 minutes)

About weather observations | Map of weather stations | Latest weather observations for WA | Other Formats
Station Details ID: 004032 Name: PORT HEDLAND AIRPORT Lat: -20.37 Lon: 118.63 Height: 6.4 m
Data from the previous 72 hours. | See also: Recent months at Port Hedland
Date/Time
WST
Temp
°C
App
Temp
°C
Dew
Point
°C
Rel
Hum
%
Delta-T
°C
Wind Press
QNH
hPa
Press
MSL
hPa
Rain since
9am
mm
Dir  Spd
km/h
Gust
km/h
Spd
kts
Gust
kts
19/04:30pm 29.9 28.6 23.1 67 4.7 WNW 35 41 19 22 1001.7 - 0.0
19/04:00pm 30.0 27.8 22.2 63 5.3 WNW 37 44 20 24 1001.9 - 0.0
19/03:30pm 29.5 27.6 22.7 67 4.6 WNW 37 46 20 25 1002.4 - 0.0
19/03:00pm 30.4 27.6 21.8 60 5.8 NW 39 44 21 24 1002.7 1002.6 0.0
19/02:30pm 31.8 29.8 21.9 55 6.7 NW 35 46 19 25 1002.9 - 0.0
19/02:00pm 32.5 31.0 22.0 54 7.1 NW 33 43 18 23 1003.1 - 0.0
19/01:30pm 32.8 32.2 23.7 58 6.3 NW 33 41 18 22 1003.5 - 0.0
19/01:00pm 32.8 31.4 22.9 56 6.8 NW 35 44 19 24 1003.9 - 0.0
19/12:30pm 33.6 32.4 23.3 55 7.1 NW 35 44 19 24 1004.3 - 0.0
19/12:00pm 33.3 32.6 23.6 56 6.8 WNW 33 41 18 22 1004.6 1004.5 0.0
19/11:30am 33.3 32.6 23.6 56 6.7 NW 33 41 18 22 1004.8 - 0.0
19/11:00am 33.4 32.6 24.0 58 6.6 NW 35 44 19 24 1005.0 - 0.0
19/10:30am 33.2 33.6 24.4 60 6.2 NW 30 37 16 20 1005.3 - 0.0
19/10:00am 32.5 32.8 24.3 62 5.7 NW 30 35 16 19 1005.6 - 0.0
19/09:30am 32.6 34.3 24.6 62 5.6 NW 24 32 13 17 1005.6 - 0.0
19/09:00am 31.4 34.6 24.3 66 5.0 WNW 15 20 8 11 1005.9 1005.8 0.0
19/08:30am 30.1 31.8 24.0 70 4.2 WNW 22 30 12 16 1005.9 - 0.0
19/08:00am 29.4 31.2 24.3 74 3.5 WNW 22 28 12 15 1005.9 - 0.0
19/07:30am 29.1 30.7 25.1 79 2.8 WNW 26 32 14 17 1005.8 - 0.0
19/07:00am 28.7 31.0 25.7 84 2.1 WNW 24 30 13 16 1005.9 - 0.0
19/06:30am 28.4 31.8 25.8 86 1.8 WNW 19 24 10 13 1005.8 - 0.0
19/06:00am 27.8 30.9 25.4 87 1.7 WNW 19 24 10 13 1005.3 1005.2 0.0
19/05:30am 27.7 31.1 25.3 87 1.7 WNW 17 22 9 12 1005.3 - 0.0
19/05:00am 27.6 31.1 25.4 88 1.5 WNW 17 22 9 12 1005.2 - 0.0
19/04:30am 27.6 31.0 25.2 87 1.7 WNW 17 22 9 12 1004.7 - 0.0
19/04:00am 27.7 31.6 25.5 88 1.5 W 15 20 8 11 1005.0 - 0.0
19/03:30am 27.7 30.7 25.3 87 1.7 WNW 19 24 10 13 1004.3 - 0.0
19/03:00am 27.7 30.9 25.9 90 1.3 WNW 20 28 11 15 1004.0 1003.9 0.0
19/02:30am 27.7 30.4 25.7 89 1.4 NW 22 30 12 16 1004.1 - 0.0
19/02:00am 28.0 31.9 26.0 89 1.4 WNW 17 20 9 11 1004.7 - 0.0
19/01:30am 27.2 32.6 25.2 89 1.4 WSW 6 7 3 4 1004.9 - 0.0
19/01:00am 27.0 32.1 25.0 89 1.4 NW 7 9 4 5 1005.2 - 0.0
19/12:30am 26.9 31.6 24.9 89 1.4 NW 9 11 5 6 1005.7 - 0.0
19/12:00am 26.8 31.4 24.8 89 1.4 W 9 11 5 6 1006.2 1006.1 0.0
 
Date/Time
WST
Temp
°C
App
Temp
°C
Dew
Point
°C
Rel
Hum
%
Delta-T
°C
Wind Press
QNH
hPa
Press
MSL
hPa
Rain since
9am
mm
Dir  Spd
km/h
Gust
km/h
Spd
kts
Gust
kts
18/11:30pm 27.0 31.1 24.6 87 1.7 WSW 11 15 6 8 1006.8 - 0.0
18/11:00pm 27.1 30.9 24.7 87 1.7 W 13 17 7 9 1007.1 - 0.0
18/10:30pm 27.2 30.9 24.6 86 1.8 WSW 13 17 7 9 1007.3 - 0.0
18/10:00pm 27.4 30.4 25.2 88 1.5 WSW 19 24 10 13 1008.0 - 0.0
18/09:30pm 28.2 30.2 24.6 81 2.5 WSW 22 30 12 16 1008.0 - 0.0
18/09:00pm 28.5 30.6 24.7 80 2.7 W 22 26 12 14 1007.9 1007.8 0.0
18/08:30pm 28.5 31.0 24.7 80 2.7 W 20 26 11 14 1007.7 - 0.0
18/08:00pm 28.6 31.7 24.8 80 2.7 W 17 20 9 11 1007.3 - 0.0
18/07:30pm 28.5 31.1 24.9 81 2.5 W 20 26 11 14 1006.9 - 0.0
18/07:00pm 28.7 30.8 24.7 79 2.8 WNW 22 28 12 15 1006.2 - 0.0
18/06:30pm 28.9 29.9 24.7 78 2.9 WNW 28 35 15 19 1005.7 - 0.0
18/06:00pm 29.6 30.9 24.7 75 3.4 WNW 26 33 14 18 1005.3 1005.2 0.0
18/05:30pm 30.1 30.8 24.9 73 3.6 NW 30 35 16 19 1004.5 - 0.0
18/05:00pm 30.6 31.2 24.7 71 4.1 WNW 30 39 16 21 1004.3 - 0.0
18/04:30pm 30.6 30.7 24.5 70 4.3 WNW 32 41 17 22 1003.9 - 0.0
18/04:00pm 32.1 32.8 24.9 65 5.1 WNW 30 37 16 20 1003.8 - 0.0
18/03:30pm 31.7 31.8 24.0 63 5.4 WNW 30 39 16 21 1004.1 - 0.0
18/03:00pm 32.5 32.8 24.3 62 5.8 WNW 30 39 16 21 1004.2 1004.1 0.0
18/02:30pm 31.6 31.5 24.5 66 5.0 NW 33 43 18 23 1004.4 - 0.0
18/02:00pm 32.2 32.3 24.5 64 5.4 NW 32 37 17 20 1004.7 - 0.0
18/01:30pm 32.4 32.8 24.4 62 5.6 NNW 30 41 16 22 1005.2 - 0.0
18/01:00pm 32.5 33.3 24.5 62 5.6 NW 28 35 15 19 1005.8 - 0.0
18/12:30pm 32.0 32.6 24.1 63 5.5 NW 28 35 15 19 1006.1 - 0.0
18/12:00pm 31.9 32.8 24.0 63 5.5 NW 26 35 14 19 1006.4 1006.3 0.0
18/11:30am 32.3 32.3 23.8 61 5.9 NW 30 35 16 19 1006.4 - 0.0
18/11:00am 33.1 34.2 24.3 60 6.2 NW 26 35 14 19 1006.6 - 0.0
18/10:30am 32.0 32.8 23.8 62 5.7 NW 26 33 14 18 1006.9 - 0.0
18/10:00am 31.6 33.3 24.7 67 4.8 NW 24 32 13 17 1007.3 - 0.0
18/09:30am 30.3 32.8 24.7 72 3.9 NW 20 28 11 15 1007.4 - 0.0
18/09:00am 29.6 31.7 24.7 75 3.4 WNW 22 28 12 15 1007.6 1007.5 0.0
18/08:30am 29.5 32.2 24.1 72 3.7 W 17 22 9 12 1007.4 - 0.0
18/08:00am 29.2 32.5 24.5 76 3.3 WSW 15 22 8 12 1007.2 - 0.0
18/07:30am 28.5 32.3 24.7 80 2.7 WSW 13 17 7 9 1007.3 - 0.0
18/07:00am 28.0 32.1 24.6 82 2.4 SW 11 13 6 7 1007.2 - 0.0
18/06:30am 27.6 31.5 24.8 85 2.0 WSW 13 17 7 9 1006.8 - 0.0
18/06:00am 27.4 30.9 24.8 86 1.8 W 15 19 8 10 1006.5 1006.4 0.0
18/05:30am 27.5 30.0 24.5 84 2.1 W 19 24 10 13 1006.2 - 0.0
18/05:00am 27.7 30.6 24.5 83 2.2 W 17 22 9 12 1006.3 - 0.0
18/04:30am 27.4 31.1 24.5 84 2.0 W 13 17 7 9 1006.4 - 0.0
18/04:00am 27.4 30.2 24.3 83 2.1 W 17 20 9 11 1006.1 - 0.0
18/03:30am 27.6 30.0 24.6 84 2.1 W 20 26 11 14 1006.1 - 0.0
18/03:00am 27.6 30.0 24.6 84 2.1 W 20 26 11 14 1006.1 1006.0 0.0
18/02:30am 27.6 29.8 24.8 85 2.0 W 22 30 12 16 1006.0 - 0.0
18/02:00am 27.8 30.0 24.8 84 2.1 W 22 30 12 16 1006.0 - 0.0
18/01:30am 27.8 30.1 25.0 85 2.0 W 22 28 12 15 1006.2 - 0.0
18/01:00am 28.0 30.4 25.2 85 2.0 W 22 30 12 16 1006.5 - 0.0
18/12:30am 28.1 29.8 25.3 85 2.0 W 26 30 14 16 1006.3 - 0.0
18/12:00am 28.3 30.9 25.5 85 2.0 W 22 30 12 16 1006.6 1006.5 0.0
 
Date/Time
WST
Temp
°C
App
Temp
°C
Dew
Point
°C
Rel
Hum
%
Delta-T
°C
Wind Press
QNH
hPa
Press
MSL
hPa
Rain since
9am
mm
Dir  Spd
km/h
Gust
km/h
Spd
kts
Gust
kts
17/11:30pm 28.5 31.6 25.7 85 2.0 W 20 30 11 16 1007.0 - 0.0
17/11:00pm 28.5 32.2 25.7 85 2.0 W 17 24 9 13 1007.2 - 0.0
17/10:30pm 28.5 31.6 25.7 85 2.0 WNW 20 30 11 16 1007.1 - 0.0
17/10:00pm 28.5 31.1 25.5 84 2.1 WNW 22 30 12 16 1006.9 - 0.0
17/09:30pm 28.4 31.4 25.6 85 2.0 NW 20 26 11 14 1006.8 - 0.0
17/09:00pm 28.5 31.3 25.3 83 2.3 WNW 20 26 11 14 1006.4 1006.3 0.0
17/08:30pm 28.6 31.3 25.0 81 2.5 WNW 20 26 11 14 1006.0 - 0.0
17/08:00pm 28.7 31.4 25.1 81 2.5 WNW 20 28 11 15 1005.8 - 0.0
17/07:30pm 28.8 30.7 25.0 80 2.7 WNW 24 30 13 16 1005.5 - 0.0
17/07:00pm 29.0 31.0 24.6 77 3.1 WNW 22 28 12 15 1005.0 - 0.0
17/06:30pm 29.1 30.1 24.2 75 3.4 WNW 26 33 14 18 1004.7 - 0.0
17/06:00pm 29.5 29.7 24.1 72 3.8 NW 30 33 16 18 1004.4 1004.3 0.0
17/05:30pm 29.9 30.5 24.1 71 4.0 NW 28 33 15 18 1004.1 - 0.0
17/05:00pm 30.2 30.6 24.4 71 4.0 NW 30 35 16 19 1003.9 - 0.0
17/04:30pm 31.0 31.2 24.1 66 4.8 NW 30 35 16 19 1003.8 - 0.0
17/04:00pm 31.5 31.0 23.6 63 5.5 NW 32 37 17 20 1003.6 - 0.0
17/03:30pm 32.2 31.8 23.7 61 5.9 NW 32 41 17 22 1003.8 - 0.0
17/03:00pm 32.3 32.5 24.1 62 5.7 NW 30 39 16 21 1004.2 1004.1 0.0
17/02:30pm 32.4 32.3 24.2 62 5.7 NW 32 39 17 21 1004.5 - 0.0
17/02:00pm 32.4 32.3 24.2 62 5.7 NW 32 39 17 21 1004.9 - 0.0
17/01:30pm 32.8 33.8 24.8 62 5.6 NNW 28 35 15 19 1005.1 - 0.0
17/01:00pm 33.0 33.9 23.9 59 6.3 NW 26 32 14 17 1005.2 - 0.0
17/12:30pm 33.4 34.5 24.3 59 6.4 NNW 26 32 14 17 1005.4 - 0.0
17/12:00pm 33.3 35.2 25.0 61 5.9 NW 24 35 13 19 1005.5 1005.4 0.0
17/11:30am 33.4 35.3 25.6 63 5.6 NW 26 33 14 18 1005.7 - 0.0
17/11:00am 32.3 35.0 25.1 65 5.1 WNW 20 32 11 17 1006.0 - 0.0
17/10:30am 32.5 35.2 25.1 65 5.2 NNW 20 28 11 15 1006.2 - 0.0
17/10:00am 31.5 34.4 24.4 66 5.0 WNW 17 26 9 14 1006.4 - 0.0
17/09:30am 31.3 34.0 24.2 66 5.0 WNW 17 28 9 15 1006.5 - 0.0
17/09:00am 30.3 33.7 24.7 72 3.9 WSW 15 20 8 11 1006.4 1006.3 0.2
17/08:30am 30.1 32.8 24.7 73 3.8 WSW 19 22 10 12 1006.4 - 0.0
17/08:00am 29.5 32.1 24.6 75 3.4 W 19 24 10 13 1006.2 - 0.2
17/07:30am 29.7 32.2 24.8 75 3.4 WSW 20 28 11 15 1006.5 - 0.0
17/07:00am 28.5 31.8 25.1 82 2.4 WSW 17 24 9 13 1006.8 - 0.0
17/06:30am 27.5 31.5 25.1 87 1.7 WSW 13 17 7 9 1006.7 - 0.0
17/06:00am 27.0 30.7 25.2 90 1.3 WSW 15 17 8 9 1006.2 1006.1 0.0
17/05:30am 26.9 31.1 25.3 91 1.1 WSW 13 15 7 8 1005.7 - 0.2
17/05:00am 27.1 31.7 25.3 90 1.3 WSW 11 13 6 7 1005.3 - 0.2
17/04:30am 27.4 31.6 25.4 89 1.4 WSW 13 17 7 9 1005.0 - 0.2
17/04:00am 27.6 31.6 25.6 89 1.4 WSW 15 17 8 9 1004.8 - 0.2
17/03:30am 27.5 31.4 25.5 89 1.4 WSW 15 17 8 9 1004.9 - 0.2
17/03:00am 27.7 32.0 25.5 88 1.6 WSW 13 17 7 9 1004.8 1004.7 0.2
17/02:30am 28.0 31.6 25.6 87 1.7 WSW 17 20 9 11 1005.0 - 0.2
17/02:00am 28.1 31.8 25.7 87 1.7 WSW 17 20 9 11 1005.2 - 0.2
17/01:30am 28.3 32.5 25.9 87 1.7 W 15 19 8 10 1005.0 - 0.2
17/01:00am 28.4 32.3 26.0 87 1.7 W 17 20 9 11 1005.2 - 0.2
17/12:30am 28.4 32.6 26.0 87 1.7 W 15 20 8 11 1005.3 - 0.2
17/12:00am 28.5 32.3 25.9 86 1.8 W 17 22 9 12 1005.6 1005.5 0.2
 
Date/Time
WST
Temp
°C
App
Temp
°C
Dew
Point
°C
Rel
Hum
%
Delta-T
°C
Wind Press
QNH
hPa
Press
MSL
hPa
Rain since
9am
mm
Dir  Spd
km/h
Gust
km/h
Spd
kts
Gust
kts
16/11:30pm 28.8 33.0 26.0 85 2.0 W 15 20 8 11 1006.2 - 0.2
16/11:00pm 28.8 33.4 26.0 85 2.0 WNW 13 15 7 8 1006.6 - 0.2
16/10:30pm 28.9 34.0 26.1 85 2.0 WNW 11 13 6 7 1006.9 - 0.2
16/10:00pm 29.0 34.1 26.2 85 2.0 WNW 11 13 6 7 1006.6 - 0.2
16/09:30pm 29.1 33.7 25.9 83 2.3 WNW 13 17 7 9 1006.3 - 0.2
16/09:00pm 29.2 34.5 26.4 85 2.0 WNW 11 15 6 8 1006.0 1005.9 0.2
16/08:30pm 29.5 34.3 26.3 83 2.3 NNW 13 15 7 8 1005.8 - 0.2
16/08:00pm 29.6 34.4 26.2 82 2.4 NNW 13 15 7 8 1005.7 - 0.2
16/07:30pm 29.7 33.9 25.9 80 2.7 NNW 15 19 8 10 1005.4 - 0.2
16/07:00pm 29.9 33.7 25.9 79 2.8 NNW 17 20 9 11 1005.0 - 0.2
16/06:30pm 30.2 33.3 25.7 77 3.2 NNW 20 28 11 15 1004.6 - 0.2
16/06:00pm 30.9 33.4 25.9 74 3.6 NNW 24 28 13 15 1004.2 1004.1 0.2
16/05:30pm 31.3 34.0 25.6 71 4.0 NNW 22 28 12 15 1003.9 - 0.2
16/05:00pm 31.5 34.3 25.8 72 4.1 N 22 30 12 16 1003.7 - 0.2

Other Formats:

Comma delimited format used in spreadsheet applications
http://www.bom.gov.au/fwo/IDW60801/IDW60801.94312.axf

JavaScript Object Notation format (JSON) in row-major order
http://www.bom.gov.au/fwo/IDW60801/IDW60801.94312.json